Time;durP1;ratioP1;P1;durP2;ratioP2;P2;SDS_P1;SDS_P2;PMS_P1;PMS_P2;Temp;Humidity;BMP_temperature;BMP_pressure;BME280_temperature;BME280_humidity;BME280_pressure;Samples;Min_cycle;Max_cycle;Signal;HPM_P1;HPM_P2
2023/03/31 00:01:51;;;;;;;6.60;4.50;;;;;;;;;;107823;281;40771;-33
2023/03/31 00:04:26;;;;;;;6.60;4.30;;;;;;;;;;107806;275;43995;-33
2023/03/31 00:07:04;;;;;;;6.60;4.50;;;;;;;;;;107784;283;43224;-32
2023/03/31 00:09:44;;;;;;;6.70;4.30;;;;;;;;;;107762;275;39908;-33
2023/03/31 00:12:21;;;;;;;7.10;4.00;;;;;;;;;;107829;283;39751;-32
2023/03/31 00:14:56;;;;;;;6.40;4.30;;;;;;;;;;107814;283;43260;-33
2023/03/31 00:17:31;;;;;;;6.80;4.40;;;;;;;;;;107810;281;43278;-33
2023/03/31 00:20:11;;;;;;;6.30;4.30;;;;;;;;;;107749;275;44738;-32
2023/03/31 00:22:47;;;;;;;6.40;4.00;;;;;;;;;;107799;283;39668;-33
2023/03/31 00:25:22;;;;;;;6.20;4.20;;;;;;;;;;107801;283;44025;-32
2023/03/31 00:27:56;;;;;;;6.20;4.00;;;;;;;;;;107754;283;43253;-32
2023/03/31 00:30:31;;;;;;;7.10;4.60;;;;;;;;;;107797;283;44982;-32
2023/03/31 00:33:04;;;;;;;6.40;4.40;;;;;;;;;;107779;275;39767;-33
2023/03/31 00:35:42;;;;;;;7.40;4.50;;;;;;;;;;107651;275;175679;-33
2023/03/31 00:38:20;;;;;;;6.10;4.00;;;;;;;;;;107768;275;42183;-33
2023/03/31 00:40:56;;;;;;;6.50;4.30;;;;;;;;;;107748;281;44976;-31
2023/03/31 00:43:35;;;;;;;7.00;4.40;;;;;;;;;;107759;282;39500;-31
2023/03/31 00:46:16;;;;;;;6.40;4.10;;;;;;;;;;107744;275;44158;-31
2023/03/31 00:48:57;;;;;;;7.00;4.20;;;;;;;;;;107728;275;43079;-31
2023/03/31 00:51:33;;;;;;;6.70;4.10;;;;;;;;;;107781;275;38827;-31
2023/03/31 00:54:11;;;;;;;6.20;4.00;;;;;;;;;;107768;282;40816;-31
2023/03/31 00:56:51;;;;;;;6.10;4.10;;;;;;;;;;107787;283;42836;-31
2023/03/31 00:59:31;;;;;;;6.30;4.00;;;;;;;;;;107757;275;42089;-31
2023/03/31 01:02:07;;;;;;;6.10;4.20;;;;;;;;;;107792;283;38775;-31
2023/03/31 01:04:49;;;;;;;6.10;4.10;;;;;;;;;;107840;275;39781;-31
2023/03/31 01:07:29;;;;;;;6.30;4.10;;;;;;;;;;107782;281;43013;-31
2023/03/31 01:10:08;;;;;;;5.90;4.10;;;;;;;;;;107784;283;42895;-31
2023/03/31 01:12:47;;;;;;;6.20;4.20;;;;;;;;;;107811;283;38872;-31
2023/03/31 01:15:23;;;;;;;6.60;4.10;;;;;;;;;;107773;286;39988;-31
2023/03/31 01:17:57;;;;;;;6.20;4.00;;;;;;;;;;107810;283;42948;-31
2023/03/31 01:20:42;;;;;;;6.20;3.90;;;;;;;;;;107779;275;43545;-31
2023/03/31 01:23:57;;;;;;;5.70;4.00;;;;;;;;;;107807;275;39009;-31
2023/03/31 01:26:55;;;;;;;6.50;4.00;;;;;;;;;;107815;282;40875;-31
2023/03/31 01:30:07;;;;;;;6.00;3.80;;;;;;;;;;107737;275;42798;-31
2023/03/31 01:33:24;;;;;;;6.00;3.80;;;;;;;;;;107795;283;48180;-30
2023/03/31 01:36:41;;;;;;;6.10;3.80;;;;;;;;;;107797;275;38873;-30
2023/03/31 01:39:59;;;;;;;6.00;3.70;;;;;;;;;;107818;283;39717;-30
2023/03/31 01:42:40;;;;;;;6.40;4.00;;;;;;;;;;107580;275;42945;-30
2023/03/31 01:45:32;;;;;;;6.50;3.90;;;;;;;;;;107710;284;42382;-30
2023/03/31 01:48:17;;;;;;;5.20;3.50;;;;;;;;;;107669;284;175676;-30
2023/03/31 01:50:59;;;;;;;5.60;3.70;;;;;;;;;;107753;275;39721;-30
2023/03/31 01:53:43;;;;;;;6.10;3.70;;;;;;;;;;107816;282;42810;-29
2023/03/31 01:56:23;;;;;;;6.20;3.60;;;;;;;;;;107810;275;42246;-30
2023/03/31 01:59:03;;;;;;;6.10;3.70;;;;;;;;;;107801;282;38539;-30
2023/03/31 02:01:45;;;;;;;5.80;3.50;;;;;;;;;;107763;275;39725;-30
2023/03/31 02:04:24;;;;;;;5.70;3.60;;;;;;;;;;107820;283;42853;-30
2023/03/31 02:07:03;;;;;;;5.50;3.50;;;;;;;;;;107802;283;42169;-30
2023/03/31 02:09:40;;;;;;;5.70;3.50;;;;;;;;;;107801;282;39503;-30
2023/03/31 02:12:16;;;;;;;6.20;3.60;;;;;;;;;;107737;275;41963;-30
2023/03/31 02:14:54;;;;;;;5.50;3.40;;;;;;;;;;107799;283;42829;-30
2023/03/31 02:17:32;;;;;;;5.20;3.40;;;;;;;;;;107764;283;43278;-30
2023/03/31 02:20:17;;;;;;;5.00;3.30;;;;;;;;;;107835;282;38835;-30
2023/03/31 02:22:56;;;;;;;5.40;3.40;;;;;;;;;;107746;287;40853;-30
2023/03/31 02:25:36;;;;;;;5.20;3.20;;;;;;;;;;107796;282;42841;-29
2023/03/31 02:28:18;;;;;;;5.70;3.50;;;;;;;;;;107810;282;43239;-30
2023/03/31 02:31:06;;;;;;;5.00;3.30;;;;;;;;;;107783;283;38586;-30
2023/03/31 02:33:41;;;;;;;5.00;3.30;;;;;;;;;;107758;283;39850;-30
2023/03/31 02:36:16;;;;;;;5.40;3.30;;;;;;;;;;107806;282;42800;-30
2023/03/31 02:38:56;;;;;;;5.20;3.50;;;;;;;;;;107785;282;42156;-30
2023/03/31 02:41:32;;;;;;;5.00;3.20;;;;;;;;;;107818;282;38881;-29
2023/03/31 02:44:08;;;;;;;5.10;3.20;;;;;;;;;;107825;282;46980;-30
2023/03/31 02:46:42;;;;;;;5.00;3.20;;;;;;;;;;107789;275;42857;-30
2023/03/31 02:49:20;;;;;;;5.00;3.10;;;;;;;;;;107776;282;42479;-30
2023/03/31 02:52:22;;;;;;;5.10;3.00;;;;;;;;;;107780;282;38850;-30
2023/03/31 02:55:29;;;;;;;4.70;3.10;;;;;;;;;;107850;275;39819;-30
2023/03/31 02:58:33;;;;;;;5.00;3.20;;;;;;;;;;107818;275;42819;-30
2023/03/31 03:01:31;;;;;;;6.40;3.30;;;;;;;;;;107804;282;44219;-31
2023/03/31 03:04:28;;;;;;;5.50;3.30;;;;;;;;;;107802;282;38771;-30
2023/03/31 03:07:12;;;;;;;5.00;3.00;;;;;;;;;;107811;282;40446;-30
2023/03/31 03:09:58;;;;;;;5.30;3.00;;;;;;;;;;107836;283;43132;-30
2023/03/31 03:12:42;;;;;;;5.30;3.10;;;;;;;;;;107787;282;42170;-29
2023/03/31 03:15:21;;;;;;;5.10;2.90;;;;;;;;;;107813;282;38596;-30
2023/03/31 03:17:58;;;;;;;4.90;3.00;;;;;;;;;;107750;275;39725;-30
2023/03/31 03:20:34;;;;;;;4.90;2.80;;;;;;;;;;107782;282;44619;-30
2023/03/31 03:23:10;;;;;;;5.30;3.10;;;;;;;;;;107766;275;43601;-30
2023/03/31 03:25:44;;;;;;;5.20;3.00;;;;;;;;;;107822;283;38785;-30
2023/03/31 03:28:18;;;;;;;4.90;2.90;;;;;;;;;;107822;282;40047;-29
2023/03/31 03:30:52;;;;;;;5.20;3.00;;;;;;;;;;107772;275;43976;-30
2023/03/31 03:33:26;;;;;;;5.10;2.80;;;;;;;;;;107643;283;175696;-30
2023/03/31 03:36:00;;;;;;;5.10;3.00;;;;;;;;;;107782;283;39927;-30
2023/03/31 03:38:35;;;;;;;4.90;2.90;;;;;;;;;;107812;283;39668;-30
2023/03/31 03:41:11;;;;;;;4.80;2.90;;;;;;;;;;107785;275;43868;-30
2023/03/31 03:43:46;;;;;;;4.80;2.80;;;;;;;;;;107752;283;42200;-30
2023/03/31 03:46:21;;;;;;;5.40;2.90;;;;;;;;;;107831;283;39149;-30
2023/03/31 03:48:55;;;;;;;4.90;2.80;;;;;;;;;;107767;275;41153;-30
2023/03/31 03:51:31;;;;;;;4.80;2.70;;;;;;;;;;107537;275;331309;-30
2023/03/31 03:54:05;;;;;;;4.70;2.60;;;;;;;;;;107750;275;42430;-29
2023/03/31 03:56:44;;;;;;;5.20;2.90;;;;;;;;;;107779;283;38900;-30
2023/03/31 03:59:18;;;;;;;4.50;2.70;;;;;;;;;;107773;275;39711;-30
2023/03/31 04:01:53;;;;;;;4.50;2.60;;;;;;;;;;107808;275;42738;-30
2023/03/31 04:04:28;;;;;;;4.10;2.40;;;;;;;;;;107633;275;175713;-29
2023/03/31 04:07:03;;;;;;;4.80;2.50;;;;;;;;;;107792;283;38934;-29
2023/03/31 04:09:39;;;;;;;5.10;2.50;;;;;;;;;;107791;282;40069;-30
2023/03/31 04:12:17;;;;;;;4.70;2.70;;;;;;;;;;107828;283;42830;-30
2023/03/31 04:14:51;;;;;;;4.60;2.60;;;;;;;;;;107783;282;43387;-30
2023/03/31 04:17:33;;;;;;;4.40;2.50;;;;;;;;;;107797;282;39189;-30
2023/03/31 04:20:12;;;;;;;4.70;2.50;;;;;;;;;;107838;283;39680;-30
2023/03/31 04:22:49;;;;;;;4.50;2.50;;;;;;;;;;107842;283;43134;-29
2023/03/31 04:25:23;;;;;;;4.60;2.40;;;;;;;;;;107788;275;42065;-30
2023/03/31 04:27:59;;;;;;;4.60;2.50;;;;;;;;;;107790;275;38837;-29
2023/03/31 04:30:38;;;;;;;4.50;2.30;;;;;;;;;;107823;282;39850;-30
2023/03/31 04:33:14;;;;;;;4.60;2.30;;;;;;;;;;107826;283;42833;-31
2023/03/31 04:35:51;;;;;;;4.90;2.40;;;;;;;;;;107801;275;42121;-31
2023/03/31 04:38:32;;;;;;;5.20;2.50;;;;;;;;;;107818;279;38755;-32
2023/03/31 04:41:06;;;;;;;4.60;2.50;;;;;;;;;;107810;282;39836;-32
2023/03/31 04:43:41;;;;;;;5.90;2.40;;;;;;;;;;107822;275;42836;-32
2023/03/31 04:46:15;;;;;;;4.90;2.50;;;;;;;;;;107741;275;42170;-32
2023/03/31 04:48:50;;;;;;;4.80;2.40;;;;;;;;;;107841;282;38543;-32
2023/03/31 04:51:27;;;;;;;5.20;2.70;;;;;;;;;;107837;275;39896;-33
2023/03/31 04:54:03;;;;;;;4.60;2.30;;;;;;;;;;107704;283;175567;-33
2023/03/31 04:56:39;;;;;;;4.30;2.30;;;;;;;;;;107801;283;48067;-32
2023/03/31 04:59:15;;;;;;;4.50;2.40;;;;;;;;;;107822;283;39958;-33
2023/03/31 05:01:51;;;;;;;4.30;2.50;;;;;;;;;;107886;282;39932;-33
2023/03/31 05:04:29;;;;;;;4.90;2.40;;;;;;;;;;107833;282;43013;-33
2023/03/31 05:07:03;;;;;;;4.50;2.70;;;;;;;;;;107793;275;48316;-33
2023/03/31 05:09:38;;;;;;;4.50;2.30;;;;;;;;;;107844;283;38781;-33
2023/03/31 05:12:15;;;;;;;4.50;2.40;;;;;;;;;;107840;282;41056;-33
2023/03/31 05:14:51;;;;;;;4.70;2.40;;;;;;;;;;107781;275;43186;-32
2023/03/31 05:17:27;;;;;;;4.90;2.50;;;;;;;;;;107847;282;50564;-32
2023/03/31 05:20:05;;;;;;;4.10;2.30;;;;;;;;;;107783;275;38902;-33
2023/03/31 05:22:41;;;;;;;4.10;2.20;;;;;;;;;;107814;275;39644;-33
2023/03/31 05:25:20;;;;;;;4.50;2.40;;;;;;;;;;107765;283;42938;-32
2023/03/31 05:27:53;;;;;;;5.20;2.80;;;;;;;;;;107800;283;42230;-32
2023/03/31 05:30:28;;;;;;;4.80;2.30;;;;;;;;;;107813;275;39996;-32
2023/03/31 05:33:02;;;;;;;4.40;2.30;;;;;;;;;;107809;275;39836;-33
2023/03/31 05:35:38;;;;;;;4.00;2.40;;;;;;;;;;107729;282;43557;-31
2023/03/31 05:38:12;;;;;;;5.60;2.60;;;;;;;;;;107821;282;44581;-33
2023/03/31 05:40:47;;;;;;;4.60;2.70;;;;;;;;;;107823;275;38867;-33
2023/03/31 05:43:21;;;;;;;3.90;2.30;;;;;;;;;;107804;275;39888;-33
2023/03/31 05:45:55;;;;;;;4.20;2.40;;;;;;;;;;107740;275;42952;-33
2023/03/31 05:48:30;;;;;;;4.40;2.20;;;;;;;;;;107809;282;41851;-34
2023/03/31 05:51:06;;;;;;;4.90;2.50;;;;;;;;;;107777;275;40016;-33
2023/03/31 05:53:43;;;;;;;4.40;2.40;;;;;;;;;;107807;283;39728;-33
2023/03/31 05:56:18;;;;;;;5.00;3.00;;;;;;;;;;107808;275;42843;-33
2023/03/31 05:58:52;;;;;;;5.30;2.50;;;;;;;;;;107832;275;42145;-33
2023/03/31 06:01:28;;;;;;;4.90;2.60;;;;;;;;;;107835;282;38997;-33
2023/03/31 06:04:02;;;;;;;7.60;3.80;;;;;;;;;;107827;283;39685;-33
2023/03/31 06:06:37;;;;;;;8.30;4.10;;;;;;;;;;107758;275;44169;-33
2023/03/31 06:09:12;;;;;;;10.40;3.90;;;;;;;;;;107827;287;42195;-33
2023/03/31 06:11:49;;;;;;;8.20;4.10;;;;;;;;;;107826;275;39837;-33
2023/03/31 06:14:25;;;;;;;8.30;4.00;;;;;;;;;;107825;275;40055;-33
2023/03/31 06:16:59;;;;;;;8.20;4.00;;;;;;;;;;107760;283;44003;-32
2023/03/31 06:19:35;;;;;;;8.20;4.30;;;;;;;;;;107829;282;42567;-33
2023/03/31 06:22:10;;;;;;;8.60;4.00;;;;;;;;;;107823;275;40263;-33
2023/03/31 06:24:43;;;;;;;7.80;3.90;;;;;;;;;;107844;283;39891;-32
2023/03/31 06:27:20;;;;;;;8.80;4.20;;;;;;;;;;107794;282;44185;-33
2023/03/31 06:29:57;;;;;;;8.20;3.80;;;;;;;;;;107700;275;175599;-33
2023/03/31 06:32:32;;;;;;;7.80;3.80;;;;;;;;;;107777;283;38887;-33
2023/03/31 06:35:10;;;;;;;8.00;4.00;;;;;;;;;;107856;275;41002;-32
2023/03/31 06:37:45;;;;;;;8.30;4.10;;;;;;;;;;107798;283;43140;-33
2023/03/31 06:40:20;;;;;;;8.60;4.20;;;;;;;;;;107841;283;42561;-33
2023/03/31 06:42:56;;;;;;;8.80;4.30;;;;;;;;;;107795;283;38887;-33
2023/03/31 06:45:30;;;;;;;7.80;3.70;;;;;;;;;;107751;275;39887;-36
2023/03/31 06:48:04;;;;;;;9.20;4.10;;;;;;;;;;107759;275;42828;-31
2023/03/31 06:50:40;;;;;;;8.50;4.10;;;;;;;;;;107802;282;43203;-36
2023/03/31 06:53:14;;;;;;;7.30;4.20;;;;;;;;;;107779;282;39822;-36
2023/03/31 06:55:48;;;;;;;8.50;4.20;;;;;;;;;;107805;275;40841;-35
2023/03/31 06:58:22;;;;;;;7.50;4.10;;;;;;;;;;107740;275;43960;-35
2023/03/31 07:01:01;;;;;;;7.30;4.10;;;;;;;;;;107789;275;42160;-35
2023/03/31 07:03:37;;;;;;;8.10;4.70;;;;;;;;;;107784;283;40039;-33
2023/03/31 07:06:13;;;;;;;8.10;4.30;;;;;;;;;;107785;284;40562;-33
2023/03/31 07:08:47;;;;;;;7.00;4.10;;;;;;;;;;107740;275;43946;-36
2023/03/31 07:11:23;;;;;;;8.60;4.10;;;;;;;;;;107789;283;42229;-35
2023/03/31 07:13:57;;;;;;;7.70;4.30;;;;;;;;;;107822;282;38797;-34
2023/03/31 07:16:32;;;;;;;7.40;4.10;;;;;;;;;;107805;282;39807;-34
2023/03/31 07:19:09;;;;;;;7.10;4.10;;;;;;;;;;107751;283;44066;-36
2023/03/31 07:21:43;;;;;;;7.50;4.20;;;;;;;;;;107785;282;42169;-36
2023/03/31 07:24:19;;;;;;;7.20;4.10;;;;;;;;;;107819;283;39900;-36
2023/03/31 07:26:55;;;;;;;6.90;3.80;;;;;;;;;;107842;275;39811;-36
2023/03/31 07:29:31;;;;;;;6.90;4.10;;;;;;;;;;107768;283;42842;-37
2023/03/31 07:32:06;;;;;;;7.10;3.80;;;;;;;;;;107799;283;42236;-36
2023/03/31 07:34:41;;;;;;;6.80;3.80;;;;;;;;;;107786;283;38786;-32
2023/03/31 07:37:17;;;;;;;6.40;4.00;;;;;;;;;;107745;283;39785;-34
2023/03/31 07:39:51;;;;;;;6.50;3.90;;;;;;;;;;107705;275;43126;-34
2023/03/31 07:42:26;;;;;;;6.70;4.00;;;;;;;;;;107734;283;42133;-33
2023/03/31 07:45:01;;;;;;;5.60;3.80;;;;;;;;;;107741;283;38860;-34
2023/03/31 07:47:37;;;;;;;5.80;3.70;;;;;;;;;;107723;283;39796;-34
2023/03/31 07:50:12;;;;;;;6.30;4.10;;;;;;;;;;107562;283;175562;-35
2023/03/31 07:52:47;;;;;;;6.10;4.10;;;;;;;;;;107735;281;42264;-35
2023/03/31 07:55:22;;;;;;;6.40;4.20;;;;;;;;;;107777;283;38890;-35
2023/03/31 07:57:57;;;;;;;7.10;4.20;;;;;;;;;;107798;283;39800;-35
2023/03/31 08:00:31;;;;;;;5.30;3.80;;;;;;;;;;107737;283;48154;-35
2023/03/31 08:03:11;;;;;;;5.90;4.10;;;;;;;;;;107795;286;42253;-34
2023/03/31 08:05:51;;;;;;;7.20;4.10;;;;;;;;;;107770;283;38809;-35
2023/03/31 08:08:26;;;;;;;6.10;4.00;;;;;;;;;;107801;283;41148;-35
2023/03/31 08:11:02;;;;;;;6.20;4.00;;;;;;;;;;107792;275;49440;-35
2023/03/31 08:13:39;;;;;;;7.00;4.20;;;;;;;;;;107732;283;42324;-34
2023/03/31 08:16:15;;;;;;;5.80;3.90;;;;;;;;;;107775;281;38739;-35
2023/03/31 08:18:50;;;;;;;6.40;3.90;;;;;;;;;;107698;283;39721;-34
2023/03/31 08:21:28;;;;;;;6.20;3.70;;;;;;;;;;108050;281;175571;-31
2023/03/31 08:24:04;;;;;;;5.80;3.70;;;;;;;;;;107572;274;42434;-32
2023/03/31 08:26:38;;;;;;;5.50;3.70;;;;;;;;;;107719;274;38797;-35
2023/03/31 08:29:14;;;;;;;6.30;3.90;;;;;;;;;;107732;275;39860;-33
2023/03/31 08:31:48;;;;;;;5.80;3.70;;;;;;;;;;107852;275;42847;-34
2023/03/31 08:34:25;;;;;;;5.40;3.80;;;;;;;;;;107772;282;42185;-33
2023/03/31 08:36:59;;;;;;;5.70;3.90;;;;;;;;;;107807;282;39007;-34
2023/03/31 08:39:36;;;;;;;5.50;3.80;;;;;;;;;;107092;282;894600;-34
2023/03/31 08:42:17;;;;;;;5.30;3.80;;;;;;;;;;107815;282;42852;-34
2023/03/31 08:45:00;;;;;;;5.50;3.50;;;;;;;;;;107815;288;42164;-34
2023/03/31 08:47:37;;;;;;;5.80;3.70;;;;;;;;;;107773;283;38957;-33
2023/03/31 08:53:23;;;;;;;5.60;3.40;;;;;;;;;;107758;282;43077;-33
2023/03/31 08:56:02;;;;;;;5.30;3.60;;;;;;;;;;107721;288;42160;-34
2023/03/31 08:58:43;;;;;;;5.40;3.80;;;;;;;;;;107676;283;38951;-34
2023/03/31 09:01:37;;;;;;;5.30;3.50;;;;;;;;;;107666;276;39718;-34
2023/03/31 09:05:16;;;;;;;5.50;3.80;;;;;;;;;;107741;275;43064;-33
2023/03/31 09:08:03;;;;;;;4.80;3.40;;;;;;;;;;107682;288;42388;-34
2023/03/31 09:10:50;;;;;;;5.60;3.80;;;;;;;;;;107691;283;38838;-33
2023/03/31 09:13:51;;;;;;;5.80;3.70;;;;;;;;;;107733;284;39745;-34
2023/03/31 09:16:37;;;;;;;6.10;3.80;;;;;;;;;;107759;283;45347;-34
2023/03/31 09:19:24;;;;;;;5.30;3.70;;;;;;;;;;107761;288;41937;-34
2023/03/31 09:22:03;;;;;;;5.50;3.70;;;;;;;;;;107681;284;38929;-34
2023/03/31 09:24:55;;;;;;;5.00;3.60;;;;;;;;;;107723;283;40981;-32
2023/03/31 09:27:36;;;;;;;5.50;3.50;;;;;;;;;;107700;284;45170;-32
2023/03/31 09:30:18;;;;;;;6.40;3.50;;;;;;;;;;107571;283;175568;-32
2023/03/31 09:32:55;;;;;;;5.40;3.80;;;;;;;;;;107723;284;40915;-32
2023/03/31 09:35:32;;;;;;;5.50;3.60;;;;;;;;;;107572;288;175515;-32
2023/03/31 09:38:10;;;;;;;5.50;3.60;;;;;;;;;;107716;283;42886;-33
2023/03/31 09:40:44;;;;;;;5.60;3.70;;;;;;;;;;107712;283;42230;-33
2023/03/31 09:43:28;;;;;;;5.70;3.60;;;;;;;;;;107726;275;38803;-33
2023/03/31 09:46:02;;;;;;;5.30;3.50;;;;;;;;;;107706;284;40907;-33
2023/03/31 09:48:52;;;;;;;5.00;3.40;;;;;;;;;;107725;281;43890;-33
2023/03/31 09:51:36;;;;;;;5.10;3.40;;;;;;;;;;107692;282;44194;-32
2023/03/31 09:54:22;;;;;;;5.20;3.20;;;;;;;;;;107728;283;39173;-32
2023/03/31 09:56:58;;;;;;;5.10;3.40;;;;;;;;;;107703;284;39726;-33
2023/03/31 09:59:36;;;;;;;4.80;3.10;;;;;;;;;;107790;283;42864;-32
2023/03/31 10:02:35;;;;;;;5.70;3.10;;;;;;;;;;107574;277;42267;-33
2023/03/31 10:05:38;;;;;;;5.30;3.30;;;;;;;;;;107677;277;40238;-33
2023/03/31 10:08:29;;;;;;;5.30;3.10;;;;;;;;;;107736;282;39779;-34
2023/03/31 10:11:14;;;;;;;4.60;2.80;;;;;;;;;;107636;277;42912;-34
2023/03/31 10:13:57;;;;;;;5.10;2.80;;;;;;;;;;107694;286;41906;-34
2023/03/31 10:16:43;;;;;;;4.70;2.60;;;;;;;;;;107697;277;39984;-33
2023/03/31 10:19:24;;;;;;;4.70;2.60;;;;;;;;;;107692;284;39715;-33
2023/03/31 10:22:04;;;;;;;5.00;2.60;;;;;;;;;;107651;282;42883;-33
2023/03/31 10:24:47;;;;;;;4.80;2.50;;;;;;;;;;107657;277;42392;-33
2023/03/31 10:27:26;;;;;;;5.00;2.50;;;;;;;;;;107670;284;38840;-32
2023/03/31 10:30:04;;;;;;;4.70;2.50;;;;;;;;;;107668;283;39721;-32
2023/03/31 10:32:43;;;;;;;4.40;2.50;;;;;;;;;;107543;281;175493;-34
2023/03/31 10:35:29;;;;;;;4.80;2.60;;;;;;;;;;107654;276;42212;-34
2023/03/31 10:38:10;;;;;;;4.80;2.70;;;;;;;;;;107521;281;176735;-33
2023/03/31 10:40:54;;;;;;;5.20;2.60;;;;;;;;;;107673;284;39719;-35
2023/03/31 10:43:40;;;;;;;5.30;2.30;;;;;;;;;;107537;277;175502;-32
2023/03/31 10:46:19;;;;;;;4.50;2.40;;;;;;;;;;107663;281;42244;-34
2023/03/31 10:49:01;;;;;;;4.00;2.20;;;;;;;;;;107688;284;38808;-34
2023/03/31 10:51:37;;;;;;;5.50;2.60;;;;;;;;;;107657;288;39702;-34
2023/03/31 10:54:18;;;;;;;4.60;2.50;;;;;;;;;;107776;284;48917;-35
2023/03/31 10:56:57;;;;;;;5.80;2.30;;;;;;;;;;107661;281;44193;-35
2023/03/31 10:59:57;;;;;;;4.30;2.30;;;;;;;;;;107717;284;38775;-34
2023/03/31 11:03:07;;;;;;;4.30;2.20;;;;;;;;;;107615;282;39712;-35
2023/03/31 11:05:51;;;;;;;5.00;2.30;;;;;;;;;;107644;284;42920;-35
2023/03/31 11:08:47;;;;;;;4.80;2.20;;;;;;;;;;107678;283;42259;-34
2023/03/31 11:11:38;;;;;;;5.10;2.30;;;;;;;;;;107662;286;38761;-35
2023/03/31 11:14:21;;;;;;;5.30;2.20;;;;;;;;;;107663;283;39783;-34
2023/03/31 11:17:11;;;;;;;5.40;2.30;;;;;;;;;;107647;289;43182;-34
2023/03/31 11:19:58;;;;;;;5.30;2.10;;;;;;;;;;107647;284;42163;-34
2023/03/31 11:22:44;;;;;;;4.70;2.20;;;;;;;;;;107681;276;39693;-32
2023/03/31 11:25:31;;;;;;;4.20;2.10;;;;;;;;;;107704;282;47103;-33
2023/03/31 11:28:30;;;;;;;5.00;2.20;;;;;;;;;;107693;289;42881;-32
2023/03/31 11:31:17;;;;;;;4.60;2.30;;;;;;;;;;107656;285;42130;-32
2023/03/31 11:34:06;;;;;;;4.80;2.10;;;;;;;;;;107666;284;38867;-33
2023/03/31 11:37:20;;;;;;;4.90;2.20;;;;;;;;;;107709;284;40838;-34
2023/03/31 11:40:15;;;;;;;4.60;2.00;;;;;;;;;;107690;284;42840;-35
2023/03/31 11:42:57;;;;;;;4.80;2.00;;;;;;;;;;107668;284;42366;-35
2023/03/31 11:45:40;;;;;;;4.90;2.10;;;;;;;;;;107614;284;175585;-35
2023/03/31 11:48:27;;;;;;;4.60;2.10;;;;;;;;;;107690;277;39745;-36
2023/03/31 11:51:05;;;;;;;4.10;1.90;;;;;;;;;;107129;284;666087;-36
2023/03/31 11:53:42;;;;;;;4.20;2.10;;;;;;;;;;107679;277;42182;-36
2023/03/31 11:56:20;;;;;;;4.40;1.90;;;;;;;;;;107648;285;39939;-36
2023/03/31 11:58:56;;;;;;;4.10;1.90;;;;;;;;;;107676;285;40761;-36
2023/03/31 12:01:41;;;;;;;4.00;1.90;;;;;;;;;;107675;282;43958;-36
2023/03/31 12:04:33;;;;;;;4.70;2.00;;;;;;;;;;107615;286;42149;-36
2023/03/31 12:07:24;;;;;;;4.20;2.00;;;;;;;;;;107686;283;38899;-36
2023/03/31 12:10:08;;;;;;;4.80;2.10;;;;;;;;;;107547;290;175570;-36
2023/03/31 12:12:50;;;;;;;4.90;2.00;;;;;;;;;;107636;285;42813;-35
2023/03/31 12:15:27;;;;;;;;;;;;;;;;;;107606;285;42246;-35
2023/03/31 12:18:10;;;;;;;4.40;2.20;;;;;;;;;;107589;285;38884;-36
2023/03/31 12:20:49;;;;;;;4.50;2.10;;;;;;;;;;107606;285;40673;-35
2023/03/31 12:23:27;;;;;;;4.00;1.90;;;;;;;;;;107622;285;44009;-36
2023/03/31 12:26:10;;;;;;;4.60;2.00;;;;;;;;;;107496;281;42670;-37
2023/03/31 12:28:47;;;;;;;5.20;2.00;;;;;;;;;;107581;285;40053;-34
2023/03/31 12:31:26;;;;;;;4.20;1.70;;;;;;;;;;107622;285;40867;-34
2023/03/31 12:34:03;;;;;;;4.40;2.00;;;;;;;;;;107595;285;42858;-34
2023/03/31 12:36:59;;;;;;;4.90;2.00;;;;;;;;;;107575;284;48039;-34
2023/03/31 12:39:52;;;;;;;4.30;1.90;;;;;;;;;;107615;285;39829;-33
2023/03/31 12:43:05;;;;;;;4.20;1.80;;;;;;;;;;107639;289;41889;-33
2023/03/31 12:45:56;;;;;;;4.70;2.20;;;;;;;;;;107534;285;42978;-33
2023/03/31 12:49:02;;;;;;;4.70;2.00;;;;;;;;;;107559;283;43309;-33
2023/03/31 12:52:03;;;;;;;3.90;1.90;;;;;;;;;;107615;277;38712;-33
2023/03/31 12:55:22;;;;;;;4.40;2.10;;;;;;;;;;107651;284;40079;-33
2023/03/31 12:58:30;;;;;;;5.50;1.90;;;;;;;;;;107651;284;50200;-34
2023/03/31 13:01:20;;;;;;;4.20;1.90;;;;;;;;;;107654;287;42186;-33
2023/03/31 13:04:10;;;;;;;5.20;1.90;;;;;;;;;;107640;277;38773;-33
2023/03/31 13:07:08;;;;;;;4.00;1.90;;;;;;;;;;107666;284;39727;-34
2023/03/31 13:10:28;;;;;;;4.20;1.90;;;;;;;;;;107618;284;42856;-33
2023/03/31 13:13:14;;;;;;;4.90;1.90;;;;;;;;;;107669;277;43289;-32
2023/03/31 13:15:58;;;;;;;4.30;1.70;;;;;;;;;;107648;287;39754;-32
2023/03/31 13:18:42;;;;;;;4.40;1.80;;;;;;;;;;107652;284;46777;-35
2023/03/31 13:21:16;;;;;;;4.10;1.70;;;;;;;;;;107599;284;42650;-34
2023/03/31 13:24:09;;;;;;;4.50;2.00;;;;;;;;;;107632;277;43440;-32
2023/03/31 13:26:55;;;;;;;4.40;2.00;;;;;;;;;;107441;284;175223;-32
2023/03/31 13:29:44;;;;;;;4.30;1.80;;;;;;;;;;107637;284;39712;-32
2023/03/31 13:32:28;;;;;;;3.90;1.70;;;;;;;;;;107661;284;43939;-32
2023/03/31 13:35:17;;;;;;;3.90;1.80;;;;;;;;;;107620;276;42146;-32
2023/03/31 13:38:18;;;;;;;4.80;1.90;;;;;;;;;;107574;277;39105;-32
2023/03/31 13:41:37;;;;;;;4.30;1.70;;;;;;;;;;107617;281;40215;-33
2023/03/31 13:44:49;;;;;;;4.30;1.90;;;;;;;;;;107621;284;42901;-33
2023/03/31 13:47:49;;;;;;;3.80;1.80;;;;;;;;;;107571;284;42155;-33
2023/03/31 13:50:41;;;;;;;3.80;1.80;;;;;;;;;;107612;285;39839;-33
2023/03/31 13:53:42;;;;;;;3.90;1.50;;;;;;;;;;107636;284;39768;-33
2023/03/31 13:56:49;;;;;;;3.70;1.60;;;;;;;;;;107629;284;43230;-33
2023/03/31 13:59:46;;;;;;;4.10;1.80;;;;;;;;;;107566;284;47976;-32
2023/03/31 14:02:42;;;;;;;4.90;1.80;;;;;;;;;;107673;282;39073;-32
2023/03/31 14:05:32;;;;;;;3.80;1.70;;;;;;;;;;107630;277;41105;-32
2023/03/31 14:08:13;;;;;;;4.10;1.80;;;;;;;;;;107593;284;44192;-32
2023/03/31 14:10:50;;;;;;;3.90;1.80;;;;;;;;;;107484;286;175544;-32
2023/03/31 14:13:29;;;;;;;3.80;1.60;;;;;;;;;;107669;276;39635;-32
2023/03/31 14:16:08;;;;;;;4.30;1.80;;;;;;;;;;107665;282;39763;-32
2023/03/31 14:18:54;;;;;;;5.30;2.00;;;;;;;;;;107619;277;43983;-32
2023/03/31 14:21:38;;;;;;;4.50;1.90;;;;;;;;;;107617;284;43178;-33
2023/03/31 14:24:23;;;;;;;4.50;1.80;;;;;;;;;;107567;283;175554;-33
2023/03/31 14:27:12;;;;;;;5.20;1.80;;;;;;;;;;107633;277;39880;-33
2023/03/31 14:29:58;;;;;;;4.70;1.70;;;;;;;;;;107600;277;43214;-33
2023/03/31 14:32:49;;;;;;;4.90;1.90;;;;;;;;;;107613;284;42142;-33
2023/03/31 14:35:41;;;;;;;4.30;1.80;;;;;;;;;;107627;283;38780;-33
2023/03/31 14:38:20;;;;;;;6.00;2.20;;;;;;;;;;107571;284;40129;-33
2023/03/31 14:40:59;;;;;;;4.70;1.90;;;;;;;;;;107659;277;42842;-33
2023/03/31 14:43:37;;;;;;;4.40;1.70;;;;;;;;;;107642;284;42221;-33
2023/03/31 14:46:12;;;;;;;4.60;1.90;;;;;;;;;;107641;284;38791;-33
2023/03/31 14:48:54;;;;;;;4.30;1.70;;;;;;;;;;107564;283;41007;-33
2023/03/31 14:51:34;;;;;;;4.50;1.60;;;;;;;;;;107624;284;43024;-33
2023/03/31 14:54:20;;;;;;;4.50;1.90;;;;;;;;;;107601;285;42480;-33
2023/03/31 14:56:58;;;;;;;3.90;1.60;;;;;;;;;;107620;284;38773;-33
2023/03/31 14:59:37;;;;;;;3.90;1.70;;;;;;;;;;107575;281;39775;-33
2023/03/31 15:02:25;;;;;;;4.30;1.80;;;;;;;;;;107635;281;42874;-33
2023/03/31 15:05:01;;;;;;;4.50;1.80;;;;;;;;;;107637;281;42336;-33
2023/03/31 15:07:39;;;;;;;4.40;1.80;;;;;;;;;;107642;284;38929;-33
2023/03/31 15:10:22;;;;;;;3.90;1.60;;;;;;;;;;107581;276;39666;-33
2023/03/31 15:12:55;;;;;;;4.30;1.60;;;;;;;;;;107643;284;42896;-33
2023/03/31 15:15:43;;;;;;;4.70;1.70;;;;;;;;;;107630;282;42141;-33
2023/03/31 15:18:22;;;;;;;4.70;2.00;;;;;;;;;;107596;281;38841;-33
2023/03/31 15:21:01;;;;;;;3.90;1.80;;;;;;;;;;107602;277;39712;-32
2023/03/31 15:23:38;;;;;;;4.00;1.70;;;;;;;;;;107574;277;42624;-33
2023/03/31 15:26:18;;;;;;;4.50;1.80;;;;;;;;;;107616;284;42294;-33
2023/03/31 15:29:07;;;;;;;5.30;1.80;;;;;;;;;;107472;285;192953;-33
2023/03/31 15:31:46;;;;;;;3.90;1.60;;;;;;;;;;107604;282;39729;-33
2023/03/31 15:34:30;;;;;;;4.70;1.70;;;;;;;;;;107641;285;42866;-34
2023/03/31 15:37:05;;;;;;;3.60;1.60;;;;;;;;;;107660;289;42039;-32
2023/03/31 15:39:46;;;;;;;4.30;1.90;;;;;;;;;;107621;284;39200;-32
2023/03/31 15:42:21;;;;;;;4.20;1.90;;;;;;;;;;107625;277;39778;-32
2023/03/31 15:45:36;;;;;;;4.10;1.60;;;;;;;;;;107640;277;42843;-32
2023/03/31 15:48:27;;;;;;;4.30;1.60;;;;;;;;;;107590;284;42262;-31
2023/03/31 15:51:19;;;;;;;4.00;1.60;;;;;;;;;;107567;285;40000;-31
2023/03/31 15:53:58;;;;;;;4.40;1.80;;;;;;;;;;107617;277;40050;-31
2023/03/31 15:56:46;;;;;;;3.70;1.80;;;;;;;;;;107622;284;42912;-31
2023/03/31 15:59:29;;;;;;;4.20;1.70;;;;;;;;;;107636;277;43262;-32
2023/03/31 16:02:21;;;;;;;4.50;1.60;;;;;;;;;;107558;285;45745;-32
2023/03/31 16:05:02;;;;;;;4.60;1.70;;;;;;;;;;107600;277;39823;-30
2023/03/31 16:07:50;;;;;;;4.00;1.80;;;;;;;;;;107651;281;42869;-31
2023/03/31 16:10:34;;;;;;;5.10;2.80;;;;;;;;;;107578;281;42531;-31
2023/03/31 16:13:13;;;;;;;7.20;5.30;;;;;;;;;;107612;281;38918;-31
2023/03/31 16:15:52;;;;;;;6.50;4.00;;;;;;;;;;107589;277;39740;-32